Oakville, TX

11:32 AM CDT on September 22, 2014 (GMT -0500)
Alice International | Change Station
CLOSE
Current Station
Airport
Location: Alice,
Elevation: 177 ft
Nearby Weather Stations

Elev 177 ft 27.74 °N, 98.03 °W | Updated 39 minutes ago

Clear
Clear
85 °F
Feels Like 92 °F
N
12
Wind Variable Wind from NE

Today
High -- | Low -- °F
--% Chance of Precip.
Yesterday
High -- | Low -- °F
Precip. -- in
7:20 AM 7:28 PM
Waning Crescent, 2% visible
Pressure 30.08 in
Visibility 10.0 miles
Clouds Clear
Heat Index 92 °F
Dew Point 74 °F
Humidity 69%
Rainfall 0.00 in
Snow Depth Not available.
UV 6 out of 12
Pollen 9.90 out of 12
Air Quality Not available.
Flu Activity Not available.
METAR KALI 221553Z AUTO 04010KT 10SM CLR 29/23 A3008 RMK AO2 SLP184 T02940233

More Conditions Fewer Conditions

Pressure 30.08 in
Visibility 10.0 miles
Clouds Clear
Heat Index 92 °F
Dew Point 74 °F
Humidity 69%
Rainfall 0.00 in
Snow Depth Not available.
UV 6 out of 12
Pollen 9.90 out of 12
Air Quality Not available.
Flu Activity Not available.
METAR KALI 221553Z AUTO 04010KT 10SM CLR 29/23 A3008 RMK AO2 SLP184 T02940233

More Conditions Fewer Conditions

10-Day Weather Forecast

Almanac

Astronomy

Sep. 22, 2014 Rise Set
Actual Time 7:20 AM CDT 7:28 PM CDT
Civil Twilight 6:57 AM CDT 7:52 PM CDT
Nautical Twilight 6:29 AM CDT 8:19 PM CDT
Astronomical Twilight 6:02 AM CDT 8:47 PM CDT
Moon 5:56 AM CDT 6:34 PM CDT
Length of Visible Light 12h 55m
Length of Day
12h 07m
Tomorrow will be 1m 41s shorter.
Waning Crescent, 2% of the Moon is Illuminated
Today
Waning Crescent
Sep 24
New
Oct 1
First Quarter
Oct 8
Full
Oct 15
Last Quarter

Today's Extremes

State Highs State Lows

Community

WunderPhotos

Upload Photos

1,755,480 photos uploaded!

WunderBlogs® & News

Nearby

Snow Depth

Station Depth Elevation
No new snow has been reported.

Earthquake Activity

City Distance Mag. Time & Date
No recent earthquake activity has been reported nearby.
Minimum magnitude displayed is 2.5.

Coastal Water Temperatures

Place Temperature
No Stations Reporting

Nearby Weather Stations